EWG6AX EDDB-EDDL
Flight info
| Callsign | EWG6AX |
|---|---|
| Flight time | N/A |
| Altitude | 28000 |
| Route | SUKIP4K SUKIP Y206 BUREL P203 HLZ L980 SAS DCT PIROT T851 HALME HALME1A |
| Aircraft | A320/M-SDE3FGHIRWY/LB1 |
Departure
| Time | 2026-05-01 12:17 |
|---|---|
| Airport | Berlin Brandenburg Airport (EDDB) |
Arrival
| Time | N/A |
|---|---|
| Airport | Düsseldorf Airport (EDDL) |
| Time | Latitude | Longitude | Altitude | Speed | Heading |
|---|---|---|---|---|---|
| 2026-05-01 12:03 | 52.36096 | 13.51177 | 155 ft | 0 kts | 339° |
| 2026-05-01 12:06 | 52.36082 | 13.51185 | 155 ft | 3 kts | 339° |
| 2026-05-01 12:06 | 52.36063 | 13.51197 | 154 ft | 3 kts | 339° |
| 2026-05-01 12:07 | 52.36045 | 13.51208 | 154 ft | 3 kts | 334° |
| 2026-05-01 12:07 | 52.36029 | 13.51225 | 154 ft | 3 kts | 306° |
| 2026-05-01 12:07 | 52.36021 | 13.51251 | 154 ft | 3 kts | 266° |
| 2026-05-01 12:07 | 52.36023 | 13.51268 | 154 ft | 0 kts | 249° |
| 2026-05-01 12:09 | 52.36023 | 13.51266 | 154 ft | 1 kts | 249° |
| 2026-05-01 12:09 | 52.36014 | 13.51228 | 154 ft | 6 kts | 249° |
| 2026-05-01 12:09 | 52.35992 | 13.51137 | 154 ft | 10 kts | 249° |
| 2026-05-01 12:10 | 52.35969 | 13.51043 | 154 ft | 8 kts | 248° |
| 2026-05-01 12:10 | 52.35923 | 13.50855 | 154 ft | 11 kts | 248° |
| 2026-05-01 12:10 | 52.35894 | 13.50736 | 154 ft | 11 kts | 248° |
| 2026-05-01 12:11 | 52.35757 | 13.50557 | 154 ft | 18 kts | 243° |
| 2026-05-01 12:11 | 52.35709 | 13.50354 | 154 ft | 20 kts | 249° |
| 2026-05-01 12:11 | 52.35657 | 13.50131 | 154 ft | 22 kts | 248° |
| 2026-05-01 12:12 | 52.35598 | 13.49890 | 154 ft | 24 kts | 248° |
| 2026-05-01 12:12 | 52.35537 | 13.49636 | 154 ft | 25 kts | 249° |
| 2026-05-01 12:12 | 52.35473 | 13.49364 | 154 ft | 24 kts | 249° |
| 2026-05-01 12:12 | 52.35414 | 13.49113 | 154 ft | 23 kts | 249° |
| 2026-05-01 12:13 | 52.35356 | 13.48864 | 154 ft | 24 kts | 249° |
| 2026-05-01 12:13 | 52.35293 | 13.48599 | 154 ft | 26 kts | 249° |
| 2026-05-01 12:13 | 52.35226 | 13.48319 | 154 ft | 27 kts | 248° |
| 2026-05-01 12:13 | 52.35156 | 13.48027 | 154 ft | 28 kts | 249° |
| 2026-05-01 12:14 | 52.35101 | 13.47793 | 154 ft | 18 kts | 249° |
| 2026-05-01 12:14 | 52.35053 | 13.47590 | 156 ft | 20 kts | 249° |
| 2026-05-01 12:14 | 52.35000 | 13.47368 | 154 ft | 22 kts | 249° |
| 2026-05-01 12:14 | 52.34943 | 13.47125 | 154 ft | 24 kts | 249° |
| 2026-05-01 12:15 | 52.34883 | 13.46871 | 154 ft | 22 kts | 249° |
| 2026-05-01 12:15 | 52.34816 | 13.46723 | 154 ft | 15 kts | 185° |
| 2026-05-01 12:15 | 52.34723 | 13.46762 | 154 ft | 13 kts | 158° |
| 2026-05-01 12:15 | 52.34643 | 13.46814 | 154 ft | 12 kts | 160° |
| 2026-05-01 12:16 | 52.34575 | 13.46908 | 154 ft | 16 kts | 108° |
| 2026-05-01 12:16 | 52.34605 | 13.47103 | 154 ft | 26 kts | 71° |
| 2026-05-01 12:16 | 52.34773 | 13.47795 | 154 ft | 101 kts | 68° |
| 2026-05-01 12:16 | 52.35103 | 13.49166 | 155 ft | 155 kts | 67° |
| 2026-05-01 12:17 | 52.35549 | 13.50848 | 747 ft | 156 kts | 66° |
| 2026-05-01 12:17 | 52.35973 | 13.52462 | 1416 ft | 159 kts | 59° |
| 2026-05-01 12:17 | 52.36552 | 13.54127 | 1852 ft | 178 kts | 56° |
| 2026-05-01 12:17 | 52.37244 | 13.55949 | 2298 ft | 201 kts | 58° |
| 2026-05-01 12:18 | 52.38010 | 13.57989 | 2915 ft | 215 kts | 56° |
| 2026-05-01 12:18 | 52.38788 | 13.60118 | 3711 ft | 221 kts | 57° |
| 2026-05-01 12:18 | 52.39826 | 13.61942 | 4549 ft | 222 kts | 27° |
| 2026-05-01 12:18 | 52.41314 | 13.62630 | 5140 ft | 224 kts | 6° |
| 2026-05-01 12:19 | 52.42869 | 13.62430 | 5399 ft | 225 kts | 348° |
| 2026-05-01 12:19 | 52.44395 | 13.61574 | 6040 ft | 238 kts | 338° |
| 2026-05-01 12:19 | 52.45868 | 13.60219 | 6836 ft | 247 kts | 327° |
| 2026-05-01 12:19 | 52.47204 | 13.58356 | 7491 ft | 262 kts | 316° |
| 2026-05-01 12:20 | 52.48232 | 13.55752 | 7969 ft | 286 kts | 290° |
| 2026-05-01 12:20 | 52.48599 | 13.52523 | 8684 ft | 296 kts | 275° |
| 2026-05-01 12:20 | 52.48618 | 13.49119 | 9564 ft | 301 kts | 269° |
| 2026-05-01 12:20 | 52.48531 | 13.45670 | 10413 ft | 306 kts | 268° |
| 2026-05-01 12:21 | 52.48452 | 13.42086 | 10856 ft | 326 kts | 269° |
| 2026-05-01 12:21 | 52.48374 | 13.38243 | 11162 ft | 348 kts | 265° |
| 2026-05-01 12:21 | 52.48115 | 13.34230 | 11753 ft | 357 kts | 263° |
| 2026-05-01 12:21 | 52.47781 | 13.30154 | 12501 ft | 363 kts | 262° |
| 2026-05-01 12:22 | 52.47409 | 13.26031 | 13244 ft | 368 kts | 262° |
| 2026-05-01 12:22 | 52.47024 | 13.21863 | 13977 ft | 372 kts | 262° |
| 2026-05-01 12:22 | 52.46638 | 13.17629 | 14642 ft | 377 kts | 262° |
| 2026-05-01 12:22 | 52.46337 | 13.13336 | 15181 ft | 381 kts | 266° |
| 2026-05-01 12:23 | 52.46145 | 13.09000 | 15363 ft | 381 kts | 267° |
| 2026-05-01 12:23 | 52.45999 | 13.04659 | 15403 ft | 382 kts | 268° |
| 2026-05-01 12:23 | 52.45874 | 13.00319 | 15328 ft | 378 kts | 268° |
| 2026-05-01 12:23 | 52.45755 | 12.96068 | 15088 ft | 369 kts | 268° |
| 2026-05-01 12:24 | 52.45632 | 12.91904 | 14839 ft | 361 kts | 267° |
| 2026-05-01 12:24 | 52.45500 | 12.87815 | 14600 ft | 357 kts | 267° |
| 2026-05-01 12:24 | 52.45361 | 12.83761 | 14366 ft | 355 kts | 266° |
| 2026-05-01 12:24 | 52.45213 | 12.79733 | 14119 ft | 354 kts | 266° |
| 2026-05-01 12:25 | 52.45062 | 12.75704 | 13855 ft | 353 kts | 266° |
| 2026-05-01 12:25 | 52.44756 | 12.67443 | 13336 ft | 379 kts | 266° |
| 2026-05-01 12:25 | 52.44599 | 12.63174 | 13081 ft | 381 kts | 266° |
| 2026-05-01 12:26 | 52.44439 | 12.58836 | 12826 ft | 381 kts | 266° |
| 2026-05-01 12:26 | 52.44115 | 12.50194 | 12308 ft | 377 kts | 266° |
| 2026-05-01 12:26 | 52.43953 | 12.45914 | 12061 ft | 375 kts | 266° |
| 2026-05-01 12:27 | 52.43787 | 12.41659 | 11809 ft | 373 kts | 265° |
| 2026-05-01 12:27 | 52.43451 | 12.33201 | 11320 ft | 370 kts | 265° |